Time;durP1;ratioP1;P1;durP2;ratioP2;P2;SDS_P1;SDS_P2;PMS_P1;PMS_P2;Temp;Humidity;BMP_temperature;BMP_pressure;BME280_temperature;BME280_humidity;BME280_pressure;Samples;Min_cycle;Max_cycle;Signal;HPM_P1;HPM_P2
2021/03/19 00:00:07;;;;;;;2.65;2.03;;;;;;;2.43;90.01;101495.44;4973748;28;20109;-75
2021/03/19 00:02:36;;;;;;;4.50;2.10;;;;;;;2.62;89.36;101505.09;4974029;28;20544;-75
2021/03/19 00:05:04;;;;;;;2.92;1.77;;;;;;;2.65;88.83;101493.09;4975320;28;20082;-75
2021/03/19 00:07:40;;;;;;;3.63;2.10;;;;;;;2.69;88.46;101486.94;4961673;28;20035;-75
2021/03/19 00:10:06;;;;;;;3.70;2.03;;;;;;;2.62;89.27;101494.47;4970008;28;20030;-75
2021/03/19 00:12:32;;;;;;;2.67;1.63;;;;;;;2.61;88.97;101490.19;4969356;28;20043;-75
2021/03/19 00:15:00;;;;;;;3.25;1.85;;;;;;;2.63;88.99;101490.72;4975204;28;20038;-75
2021/03/19 00:17:25;;;;;;;3.58;1.70;;;;;;;2.54;88.88;101488.94;4971629;28;20038;-75
2021/03/19 00:19:51;;;;;;;4.38;2.22;;;;;;;2.41;90.24;101493.06;4971659;28;20498;-75
2021/03/19 00:22:16;;;;;;;4.00;2.00;;;;;;;2.42;89.83;101501.84;4965779;28;20387;-75
2021/03/19 00:24:42;;;;;;;2.70;1.80;;;;;;;2.44;90.25;101497.03;4975080;28;20038;-75
2021/03/19 00:27:07;;;;;;;3.22;1.88;;;;;;;2.36;90.61;101501.06;4971623;28;20042;-75
2021/03/19 00:29:33;;;;;;;8.68;2.20;;;;;;;2.48;89.86;101511.31;4970483;28;20018;-75
2021/03/19 00:32:01;;;;;;;3.47;1.80;;;;;;;2.50;89.98;101514.50;4971060;28;20154;-75
2021/03/19 00:34:30;;;;;;;2.40;1.80;;;;;;;2.36;90.50;101509.03;4975208;28;20070;-75
2021/03/19 00:36:55;;;;;;;3.22;1.98;;;;;;;2.32;90.65;101531.13;4972141;28;20046;-75
2021/03/19 00:39:20;;;;;;;5.50;2.22;;;;;;;2.35;90.87;101538.53;4970351;28;20047;-75
2021/03/19 00:41:46;;;;;;;3.85;2.30;;;;;;;2.44;90.57;101535.00;4978923;28;20038;-75
2021/03/19 00:44:11;;;;;;;3.25;2.03;;;;;;;2.41;90.62;101529.47;4975089;28;20023;-75
2021/03/19 00:46:37;;;;;;;5.60;2.35;;;;;;;2.34;91.12;101531.66;4971150;28;20030;-75
2021/03/19 00:49:02;;;;;;;7.60;1.98;;;;;;;2.46;90.76;101526.75;4974808;28;20157;-75
2021/03/19 00:51:28;;;;;;;3.47;2.40;;;;;;;2.38;90.84;101514.09;4973475;28;20093;-75
2021/03/19 00:53:53;;;;;;;3.08;2.22;;;;;;;2.39;91.34;101518.31;4971995;28;20027;-75
2021/03/19 00:56:19;;;;;;;5.80;2.25;;;;;;;2.31;91.35;101514.41;4979808;28;20058;-75
2021/03/19 00:58:44;;;;;;;5.40;2.20;;;;;;;2.26;92.27;101516.31;4974063;28;20077;-75
2021/03/19 01:01:10;;;;;;;4.55;2.15;;;;;;;2.25;91.89;101518.16;4980670;28;20063;-75
2021/03/19 01:03:35;;;;;;;6.05;2.28;;;;;;;2.35;92.04;101512.78;4969509;28;20085;-75
2021/03/19 01:06:01;;;;;;;5.30;2.20;;;;;;;2.34;92.05;101519.13;4966587;28;20034;-75
2021/03/19 01:08:26;;;;;;;4.53;2.10;;;;;;;2.28;92.21;101519.47;4977734;28;20141;-75
2021/03/19 01:10:55;;;;;;;6.85;2.42;;;;;;;2.27;92.93;101524.00;4973215;28;20049;-75
2021/03/19 01:13:23;;;;;;;3.67;2.25;;;;;;;2.20;92.78;101514.75;4982777;23;20037;-87
2021/03/19 01:15:49;;;;;;;5.68;2.75;;;;;;;2.24;93.33;101521.09;4985602;23;20129;-78
2021/03/19 01:18:17;;;;;;;6.35;2.45;;;;;;;2.25;92.96;101530.63;5003426;28;20110;-78
2021/03/19 01:20:44;;;;;;;3.88;2.55;;;;;;;2.09;94.11;101527.31;4993151;28;20092;-75
2021/03/19 01:23:13;;;;;;;4.72;2.47;;;;;;;2.23;94.23;101522.16;4994191;28;20042;-76
2021/03/19 01:25:39;;;;;;;4.10;2.58;;;;;;;2.10;94.43;101528.91;4992239;28;20030;-75
2021/03/19 01:28:06;;;;;;;5.25;2.50;;;;;;;2.07;95.27;101520.69;4973222;28;20498;-75
2021/03/19 01:30:35;;;;;;;4.43;2.15;;;;;;;1.94;95.51;101530.06;4956505;28;20031;-75
2021/03/19 01:33:01;;;;;;;5.00;2.67;;;;;;;1.97;95.81;101524.22;4971781;28;20487;-75
2021/03/19 01:35:29;;;;;;;6.38;2.67;;;;;;;1.96;95.73;101537.75;4983612;28;20097;-75
2021/03/19 01:37:54;;;;;;;6.28;2.50;;;;;;;2.03;95.09;101543.56;4971822;28;20656;-75
2021/03/19 01:40:24;;;;;;;4.03;2.65;;;;;;;2.04;94.71;101545.94;4978913;28;20118;-76
2021/03/19 01:43:03;;;;;;;6.95;2.90;;;;;;;2.10;94.91;101550.16;4974972;28;20035;-76
2021/03/19 01:46:06;;;;;;;4.60;2.80;;;;;;;2.02;94.55;101547.28;4971542;28;20081;-76
2021/03/19 01:49:09;;;;;;;4.57;2.80;;;;;;;1.77;96.34;101540.25;4967849;28;20042;-76
2021/03/19 01:52:11;;;;;;;4.68;2.78;;;;;;;1.88;96.22;101546.31;4973467;28;20388;-75
2021/03/19 01:55:14;;;;;;;4.07;2.80;;;;;;;1.79;96.50;101546.88;4971822;28;20060;-76
2021/03/19 01:58:34;;;;;;;4.15;2.88;;;;;;;1.77;96.95;101550.88;4971360;28;20110;-75
2021/03/19 02:01:37;;;;;;;4.13;2.63;;;;;;;1.84;96.13;101546.84;4882196;29;20122;-76
2021/03/19 02:04:39;;;;;;;4.57;2.95;;;;;;;1.79;95.95;101536.28;4971066;28;20035;-76
2021/03/19 02:07:42;;;;;;;7.07;3.00;;;;;;;1.84;96.09;101544.19;4969698;28;20510;-75
2021/03/19 02:10:45;;;;;;;5.35;3.13;;;;;;;1.74;96.35;101543.47;4971850;28;20038;-76
2021/03/19 02:13:48;;;;;;;6.82;2.80;;;;;;;1.64;97.09;101549.63;4973268;28;20046;-76
2021/03/19 02:16:51;;;;;;;5.38;2.92;;;;;;;1.59;97.54;101540.88;4970303;28;20038;-76
2021/03/19 02:19:54;;;;;;;6.72;3.50;;;;;;;1.46;97.99;101552.06;4973145;28;20037;-76
2021/03/19 02:22:57;;;;;;;5.63;3.35;;;;;;;1.62;97.51;101537.69;4973278;28;20047;-75
2021/03/19 02:26:00;;;;;;;4.72;3.17;;;;;;;1.58;97.26;101542.75;4974208;28;20396;-76
2021/03/19 02:29:03;;;;;;;5.20;3.45;;;;;;;1.45;97.47;101547.84;4985383;28;20042;-76
2021/03/19 02:31:53;;;;;;;3.25;2.72;;;;;;;1.48;98.28;101547.28;4960317;28;20039;-76
2021/03/19 02:34:21;;;;;;;4.25;2.67;;;;;;;1.65;96.90;101547.75;4973173;28;20108;-76
2021/03/19 02:36:46;;;;;;;6.68;2.90;;;;;;;1.69;96.75;101549.59;4954121;28;20039;-76
2021/03/19 02:39:12;;;;;;;5.45;3.35;;;;;;;1.61;97.01;101557.31;4966618;28;20106;-75
2021/03/19 02:41:37;;;;;;;5.55;3.20;;;;;;;1.43;97.43;101558.72;4968415;28;20043;-76
2021/03/19 02:44:03;;;;;;;5.40;3.33;;;;;;;1.40;98.36;101558.47;4972370;28;20105;-76
2021/03/19 02:46:28;;;;;;;5.03;2.78;;;;;;;1.63;97.55;101563.16;4971426;28;20631;-75
2021/03/19 02:48:54;;;;;;;12.25;3.00;;;;;;;1.61;97.41;101568.72;4973306;28;20038;-76
2021/03/19 02:51:20;;;;;;;6.32;2.78;;;;;;;1.71;96.78;101575.84;4963370;28;20411;-75
2021/03/19 02:53:45;;;;;;;7.03;3.10;;;;;;;1.62;96.35;101574.84;4969691;28;20083;-75
2021/03/19 02:56:11;;;;;;;4.55;2.80;;;;;;;1.41;98.55;101571.47;4973851;28;20038;-76
2021/03/19 02:58:37;;;;;;;5.63;2.70;;;;;;;1.54;98.51;101580.72;4990822;28;20039;-76
2021/03/19 03:01:04;;;;;;;5.75;2.58;;;;;;;1.48;98.57;101576.47;4970709;28;20031;-76
2021/03/19 03:03:30;;;;;;;5.25;2.85;;;;;;;1.55;98.45;101580.44;4959458;28;20039;-76
2021/03/19 03:05:56;;;;;;;8.07;2.80;;;;;;;1.49;97.88;101576.19;4959555;28;20034;-76
2021/03/19 03:08:22;;;;;;;5.25;3.20;;;;;;;1.47;98.38;101591.59;4972831;28;20122;-76
2021/03/19 03:10:50;;;;;;;8.85;3.08;;;;;;;1.60;98.71;101592.88;4968543;28;20055;-76
2021/03/19 03:13:17;;;;;;;6.07;2.90;;;;;;;1.59;97.84;101585.97;4962433;28;20039;-76
2021/03/19 03:15:43;;;;;;;12.00;3.60;;;;;;;1.66;97.72;101584.66;4963102;28;20049;-75
2021/03/19 03:18:10;;;;;;;6.05;3.00;;;;;;;1.49;97.59;101597.44;4972245;28;20037;-76
2021/03/19 03:20:46;;;;;;;5.60;2.92;;;;;;;1.35;98.20;101587.69;4966162;28;20023;-76
2021/03/19 03:23:12;;;;;;;4.97;3.10;;;;;;;1.29;99.05;101594.84;4964120;28;20150;-75
2021/03/19 03:25:38;;;;;;;4.97;3.10;;;;;;;1.39;98.78;101596.69;4966931;28;20030;-76
2021/03/19 03:28:05;;;;;;;5.63;3.22;;;;;;;1.35;98.35;101607.03;4967184;28;20031;-76
2021/03/19 03:30:52;;;;;;;5.55;3.13;;;;;;;1.35;99.33;101611.56;4969433;28;20078;-75
2021/03/19 03:33:18;;;;;;;6.25;3.08;;;;;;;1.31;99.41;101611.28;4971238;28;20031;-75
2021/03/19 03:35:44;;;;;;;5.38;2.90;;;;;;;1.24;99.43;101613.41;4967157;28;20106;-75
2021/03/19 03:38:14;;;;;;;4.90;3.10;;;;;;;1.26;99.30;101608.63;4963313;28;20106;-76
2021/03/19 03:41:02;;;;;;;7.70;3.30;;;;;;;1.34;99.06;101604.63;4968572;28;20054;-75
2021/03/19 03:43:29;;;;;;;5.72;3.10;;;;;;;1.14;100.00;101608.16;4959564;28;20043;-75
2021/03/19 03:45:55;;;;;;;6.43;3.50;;;;;;;1.20;99.61;101603.63;4977733;28;20034;-75
2021/03/19 03:48:26;;;;;;;5.30;3.35;;;;;;;1.17;99.79;101607.59;4972048;28;20101;-75
2021/03/19 03:50:52;;;;;;;6.05;3.55;;;;;;;1.11;99.54;101610.53;4956903;28;20035;-75
2021/03/19 03:53:18;;;;;;;4.57;3.15;;;;;;;1.18;100.00;101609.19;4969671;28;20035;-76
2021/03/19 03:55:44;;;;;;;4.97;3.25;;;;;;;1.12;100.00;101612.13;4953345;28;20036;-75
2021/03/19 03:58:11;;;;;;;7.07;3.67;;;;;;;1.19;100.00;101620.59;4973764;28;20034;-75
2021/03/19 04:00:37;;;;;;;6.88;3.78;;;;;;;1.20;100.00;101625.63;4968643;28;20155;-75
2021/03/19 04:03:04;;;;;;;6.28;3.58;;;;;;;1.29;100.00;101613.44;4971904;28;20035;-76
2021/03/19 04:05:40;;;;;;;8.63;3.58;;;;;;;1.15;99.94;101623.00;4971964;28;20499;-75
2021/03/19 04:08:08;;;;;;;7.43;3.95;;;;;;;1.14;100.00;101620.63;4967871;28;20101;-75
2021/03/19 04:10:37;;;;;;;11.30;4.15;;;;;;;1.08;100.00;101632.28;4968364;28;20431;-78
2021/03/19 04:13:03;;;;;;;6.10;3.83;;;;;;;1.23;99.84;101633.06;4970966;28;20031;-76
2021/03/19 04:15:28;;;;;;;6.38;3.78;;;;;;;1.32;100.00;101634.09;4974118;28;20034;-76
2021/03/19 04:17:59;;;;;;;6.35;3.40;;;;;;;1.45;99.34;101622.91;4970429;28;21240;-76
2021/03/19 04:20:26;;;;;;;5.85;3.45;;;;;;;1.61;98.25;101629.78;4973992;28;20034;-75
2021/03/19 04:22:52;;;;;;;8.98;4.07;;;;;;;1.64;97.97;101631.09;4981720;28;20035;-75
2021/03/19 04:25:19;;;;;;;7.40;3.85;;;;;;;1.76;96.89;101635.00;4968573;28;20054;-76
2021/03/19 04:27:49;;;;;;;9.95;4.30;;;;;;;1.71;97.37;101629.75;4971387;28;20035;-75
2021/03/19 04:30:24;;;;;;;6.97;4.28;;;;;;;1.41;98.43;101629.84;4973338;28;20031;-75
2021/03/19 04:32:52;;;;;;;7.22;3.97;;;;;;;1.44;99.78;101634.59;4968460;28;20042;-75
2021/03/19 04:35:20;;;;;;;7.82;3.67;;;;;;;1.46;99.55;101640.44;4966800;28;20070;-75
2021/03/19 04:37:47;;;;;;;8.80;4.03;;;;;;;1.40;99.82;101630.91;4974086;28;20043;-75
2021/03/19 04:40:14;;;;;;;8.13;4.65;;;;;;;1.66;98.35;101627.13;4974570;28;20459;-74
2021/03/19 04:42:39;;;;;;;7.18;4.40;;;;;;;1.68;98.18;101638.22;4973287;28;20114;-75
2021/03/19 04:45:06;;;;;;;8.02;4.53;;;;;;;1.51;98.92;101627.13;4973816;28;20118;-75
2021/03/19 04:47:32;;;;;;;8.52;4.53;;;;;;;1.56;98.76;101635.09;4973984;28;20026;-75
2021/03/19 04:49:57;;;;;;;8.95;4.43;;;;;;;1.31;99.42;101640.47;4974694;28;20035;-75
2021/03/19 04:52:23;;;;;;;9.98;4.25;;;;;;;1.57;98.64;101639.34;4974159;28;20092;-75
2021/03/19 04:54:48;;;;;;;9.82;4.85;;;;;;;1.63;97.93;101645.41;4982100;28;20036;-75
2021/03/19 04:57:14;;;;;;;9.98;5.00;;;;;;;1.54;98.15;101658.47;4971412;28;20059;-75
2021/03/19 04:59:39;;;;;;;11.52;4.82;;;;;;;1.33;99.47;101664.88;4970104;28;20118;-76
2021/03/19 05:02:05;;;;;;;8.95;5.00;;;;;;;1.23;100.00;101680.81;4973971;28;20031;-75
2021/03/19 05:04:30;;;;;;;11.23;5.35;;;;;;;1.28;100.00;101687.97;4970360;28;20034;-75
2021/03/19 05:07:01;;;;;;;11.02;5.35;;;;;;;1.32;100.00;101681.84;4977540;28;20506;-75
2021/03/19 05:09:31;;;;;;;11.13;5.37;;;;;;;1.36;100.00;101677.59;4973749;28;20034;-75
2021/03/19 05:11:58;;;;;;;12.73;5.17;;;;;;;1.37;100.00;101673.91;4972420;28;20515;-75
2021/03/19 05:14:23;;;;;;;9.18;4.95;;;;;;;1.34;100.00;101674.41;4969481;28;20759;-75
2021/03/19 05:16:50;;;;;;;11.95;5.43;;;;;;;1.32;100.00;101676.53;4959624;28;20106;-75
2021/03/19 05:19:16;;;;;;;10.43;5.32;;;;;;;1.24;100.00;101677.06;4974301;28;20131;-75
2021/03/19 05:21:42;;;;;;;12.05;5.60;;;;;;;1.28;100.00;101675.47;4974330;28;20042;-76
2021/03/19 05:24:28;;;;;;;8.00;5.25;;;;;;;1.38;100.00;101669.34;4981058;28;20026;-76
2021/03/19 05:26:53;;;;;;;11.10;5.55;;;;;;;1.45;100.00;101665.38;4908046;29;20687;-76
2021/03/19 05:29:18;;;;;;;11.95;5.57;;;;;;;1.60;100.00;101673.31;4918301;29;20130;-75
2021/03/19 05:31:44;;;;;;;10.95;5.68;;;;;;;1.52;100.00;101668.53;4911678;29;20036;-75
2021/03/19 05:34:13;;;;;;;11.63;5.90;;;;;;;1.72;99.59;101676.44;4909870;29;20048;-75
2021/03/19 05:36:38;;;;;;;11.55;5.90;;;;;;;1.69;99.99;101670.88;4925919;29;20513;-76
2021/03/19 05:39:06;;;;;;;15.13;5.85;;;;;;;1.61;100.00;101676.72;4912921;29;20048;-75
2021/03/19 05:41:34;;;;;;;15.73;6.30;;;;;;;1.76;100.00;101682.78;4907477;29;20032;-75
2021/03/19 05:44:23;;;;;;;11.35;6.15;;;;;;;1.84;100.00;101676.13;4904153;29;20048;-75
2021/03/19 05:47:01;;;;;;;18.05;6.70;;;;;;;2.00;99.94;101680.34;4911664;29;20043;-75
2021/03/19 05:49:32;;;;;;;14.05;7.15;;;;;;;2.12;99.81;101685.31;4888578;29;20155;-75
2021/03/19 05:52:01;;;;;;;17.58;7.10;;;;;;;2.14;100.00;101681.34;4913961;29;20107;-75
2021/03/19 05:54:28;;;;;;;12.48;6.63;;;;;;;2.15;100.00;101674.16;4904871;29;20052;-76
2021/03/19 05:57:07;;;;;;;11.23;6.75;;;;;;;2.05;100.00;101682.19;4910713;29;20531;-75
2021/03/19 05:59:37;;;;;;;18.73;6.40;;;;;;;2.09;100.00;101680.56;4898894;29;20441;-75
2021/03/19 06:02:16;;;;;;;13.77;7.20;;;;;;;2.23;100.00;101694.81;4917175;29;20098;-75
2021/03/19 06:04:42;;;;;;;15.30;7.88;;;;;;;2.28;100.00;101685.00;4956210;28;20050;-75
2021/03/19 06:07:07;;;;;;;14.73;7.35;;;;;;;2.41;100.00;101699.53;4980327;28;20482;-75
2021/03/19 06:09:42;;;;;;;16.10;7.88;;;;;;;2.41;100.00;101695.03;4971550;28;20149;-75
2021/03/19 06:12:14;;;;;;;12.55;6.32;;;;;;;2.49;100.00;101709.59;4971341;28;20043;-75
2021/03/19 06:14:52;;;;;;;14.38;7.25;;;;;;;2.42;100.00;101712.53;4970012;28;20553;-75
2021/03/19 06:17:23;;;;;;;14.70;7.63;;;;;;;2.52;100.00;101715.16;4965303;28;20093;-77
2021/03/19 06:19:53;;;;;;;;;;;;;;;2.70;100.00;101727.00;4963511;28;20042;-75
2021/03/19 06:22:25;;;;;;;13.02;6.93;;;;;;;2.68;100.00;101714.00;4967761;28;19918;-76
2021/03/19 06:25:22;;;;;;;14.55;7.70;;;;;;;2.84;100.00;101720.00;4971185;28;20035;-75
2021/03/19 06:27:55;;;;;;;12.15;7.18;;;;;;;2.83;100.00;101717.63;4963180;28;20543;-75
2021/03/19 06:30:26;;;;;;;15.50;8.00;;;;;;;2.70;100.00;101733.13;4973163;28;20038;-75
2021/03/19 06:33:06;;;;;;;22.52;8.20;;;;;;;2.85;100.00;101731.41;4970948;28;20038;-75
2021/03/19 06:35:34;;;;;;;18.98;7.47;;;;;;;2.92;100.00;101731.91;4971824;28;20434;-75
2021/03/19 06:38:31;;;;;;;16.02;7.68;;;;;;;3.04;100.00;101730.47;4972128;28;20384;-75
2021/03/19 06:41:28;;;;;;;14.82;7.30;;;;;;;3.13;100.00;101730.69;4965985;28;20563;-75
2021/03/19 06:44:24;;;;;;;15.13;7.50;;;;;;;3.08;100.00;101728.84;4976732;28;20042;-75
2021/03/19 06:47:00;;;;;;;21.38;7.85;;;;;;;3.13;100.00;101738.69;4962335;28;20166;-75
2021/03/19 06:49:27;;;;;;;19.13;7.70;;;;;;;3.20;100.00;101747.94;4959993;28;20038;-75
2021/03/19 06:51:55;;;;;;;16.20;8.18;;;;;;;3.20;100.00;101747.94;4962499;28;20046;-76
2021/03/19 06:54:42;;;;;;;17.13;8.77;;;;;;;3.30;100.00;101760.34;4965117;28;20121;-75
2021/03/19 06:57:09;;;;;;;17.33;8.35;;;;;;;3.37;100.00;101761.63;4966837;28;20054;-76
2021/03/19 06:59:44;;;;;;;15.60;7.55;;;;;;;3.35;100.00;101765.63;4968812;28;20039;-76
2021/03/19 07:02:37;;;;;;;16.08;7.25;;;;;;;3.39;100.00;101766.66;4981204;28;20160;-76
2021/03/19 07:05:19;;;;;;;13.02;6.97;;;;;;;3.47;100.00;101774.84;4970720;28;20042;-76
2021/03/19 07:07:45;;;;;;;14.35;7.25;;;;;;;3.58;100.00;101779.00;4967765;28;20440;-76
2021/03/19 07:10:28;;;;;;;15.75;7.72;;;;;;;3.61;100.00;101778.47;4962334;28;20025;-76
2021/03/19 07:13:03;;;;;;;16.30;7.63;;;;;;;3.65;100.00;101776.84;4962980;28;20043;-76
2021/03/19 07:15:41;;;;;;;15.50;7.57;;;;;;;3.87;100.00;101792.31;4985171;23;20126;-80
2021/03/19 07:18:24;;;;;;;17.38;7.43;;;;;;;4.01;100.00;101789.78;4989595;28;20058;-76
2021/03/19 07:20:56;;;;;;;16.98;6.80;;;;;;;4.20;100.00;101790.66;4971060;28;20027;-76
2021/03/19 07:23:25;;;;;;;12.27;7.15;;;;;;;4.27;100.00;101791.91;4964972;28;20039;-79
2021/03/19 07:25:51;;;;;;;12.30;6.32;;;;;;;4.36;99.75;101797.38;4964697;28;20089;-76
2021/03/19 07:28:26;;;;;;;16.17;6.63;;;;;;;4.44;99.54;101800.22;4977266;28;20038;-76
2021/03/19 07:31:28;;;;;;;12.35;6.72;;;;;;;4.58;98.54;101803.00;4942637;28;20519;-76
2021/03/19 07:34:13;;;;;;;13.88;6.88;;;;;;;4.58;98.61;101797.66;4960920;28;20105;-77
2021/03/19 07:37:16;;;;;;;12.45;6.35;;;;;;;4.71;98.51;101801.50;4944762;28;20118;-77
2021/03/19 07:40:14;;;;;;;11.65;6.15;;;;;;;4.86;97.70;101798.66;4943793;28;20895;-76
2021/03/19 07:43:13;;;;;;;11.93;6.30;;;;;;;5.05;97.67;101794.88;4896779;28;20046;-76
2021/03/19 07:45:57;;;;;;;14.45;5.97;;;;;;;5.12;96.52;101798.00;4932970;29;20047;-76
2021/03/19 07:48:23;;;;;;;10.43;5.65;;;;;;;5.24;96.13;101800.22;4942521;28;20039;-77
2021/03/19 07:51:07;;;;;;;10.88;5.13;;;;;;;5.11;95.76;101798.28;4961005;28;20054;-77
2021/03/19 07:53:55;;;;;;;13.30;5.70;;;;;;;5.17;95.46;101800.56;4956418;28;20695;-79
2021/03/19 07:56:38;;;;;;;10.32;5.53;;;;;;;5.07;95.38;101811.38;4956545;28;20047;-77
2021/03/19 07:59:14;;;;;;;11.52;5.05;;;;;;;5.06;95.96;101809.81;4955031;28;20042;-78
2021/03/19 08:02:01;;;;;;;9.50;5.30;;;;;;;4.99;95.08;101819.28;4943301;28;20039;-78
2021/03/19 08:04:51;;;;;;;13.02;5.38;;;;;;;5.10;96.09;101824.19;4956715;28;20039;-78
2021/03/19 08:07:35;;;;;;;12.40;5.30;;;;;;;5.31;95.47;101822.78;4952936;28;20035;-77
2021/03/19 08:10:17;;;;;;;11.50;5.40;;;;;;;5.55;94.61;101827.22;4951693;28;20050;-78
2021/03/19 08:12:48;;;;;;;8.82;4.78;;;;;;;5.70;94.98;101832.31;4956701;28;20452;-77
2021/03/19 08:15:20;;;;;;;9.68;4.70;;;;;;;5.89;94.24;101827.75;4950827;28;20518;-77
2021/03/19 08:17:55;;;;;;;8.63;4.57;;;;;;;6.01;91.90;101825.41;4951795;28;20043;-77
2021/03/19 08:20:31;;;;;;;8.40;4.07;;;;;;;5.92;92.63;101837.88;4937408;28;20066;-77
2021/03/19 08:23:04;;;;;;;11.57;4.47;;;;;;;5.96;91.95;101839.63;4951351;28;20035;-76
2021/03/19 08:25:35;;;;;;;10.40;4.32;;;;;;;6.04;91.53;101830.94;4942411;28;20040;-77
2021/03/19 08:28:14;;;;;;;8.32;3.42;;;;;;;6.25;89.46;101834.06;4948933;28;20040;-78
2021/03/19 08:31:14;;;;;;;6.53;3.83;;;;;;;6.24;88.85;101840.47;4944187;28;20031;-77
2021/03/19 08:33:58;;;;;;;7.95;3.88;;;;;;;6.07;88.65;101837.59;4941091;28;20042;-77
2021/03/19 08:36:43;;;;;;;7.43;3.67;;;;;;;6.15;88.39;101852.97;4963191;28;20550;-78
2021/03/19 08:39:21;;;;;;;7.30;3.70;;;;;;;5.98;89.13;101853.50;4950296;28;20040;-77
2021/03/19 08:41:50;;;;;;;5.00;3.45;;;;;;;6.31;90.42;101856.91;4940136;28;20059;-77
2021/03/19 08:44:18;;;;;;;4.88;3.25;;;;;;;6.79;89.95;101857.34;4944221;28;20106;-77
2021/03/19 08:46:51;;;;;;;5.43;3.85;;;;;;;7.44;88.19;101855.88;4959250;28;20043;-77
2021/03/19 08:49:26;;;;;;;6.85;3.70;;;;;;;7.73;83.95;101861.63;4944090;28;20526;-77
2021/03/19 08:51:56;;;;;;;6.20;3.30;;;;;;;7.92;82.12;101870.25;4937637;28;20035;-77
2021/03/19 08:54:26;;;;;;;5.30;2.90;;;;;;;7.97;78.99;101861.28;4945735;28;20031;-79
2021/03/19 08:57:13;;;;;;;6.55;3.13;;;;;;;7.43;80.91;101872.25;4942415;28;20071;-77
2021/03/19 08:59:38;;;;;;;6.32;2.67;;;;;;;7.39;82.50;101866.72;4966901;28;20135;-77
2021/03/19 09:02:24;;;;;;;4.05;2.38;;;;;;;7.51;81.91;101884.94;4957480;28;20114;-76
2021/03/19 09:04:52;;;;;;;7.47;2.78;;;;;;;7.63;80.43;101871.78;4950366;28;20039;-78
2021/03/19 09:07:31;;;;;;;4.15;2.30;;;;;;;7.63;80.15;101871.78;4966742;28;20404;-77
2021/03/19 09:10:05;;;;;;;3.83;2.53;;;;;;;7.50;80.69;101884.16;4943008;28;20027;-77
2021/03/19 09:12:32;;;;;;;5.28;2.33;;;;;;;7.71;80.47;101879.09;4949523;28;20035;-76
2021/03/19 09:15:16;;;;;;;5.72;2.45;;;;;;;7.62;80.37;101887.09;4949597;28;20032;-77
2021/03/19 09:17:47;;;;;;;6.13;2.50;;;;;;;7.52;80.86;101902.59;4950118;28;20070;-77
2021/03/19 09:20:22;;;;;;;5.25;2.90;;;;;;;7.57;81.87;101894.47;4952766;28;20043;-76
2021/03/19 09:23:22;;;;;;;4.30;2.28;;;;;;;7.07;80.12;101902.50;4956597;28;20111;-76
2021/03/19 09:26:01;;;;;;;3.78;1.80;;;;;;;7.12;79.00;101899.72;4950328;28;20043;-76
2021/03/19 09:28:32;;;;;;;2.65;1.80;;;;;;;7.21;78.93;101897.13;4954254;28;20075;-77
2021/03/19 09:31:22;;;;;;;1.92;1.40;;;;;;;7.39;77.68;101895.41;4957541;28;20035;-77
2021/03/19 09:33:48;;;;;;;2.00;1.35;;;;;;;7.31;76.52;101907.63;4943677;28;20118;-78
2021/03/19 09:36:52;;;;;;;2.25;1.40;;;;;;;7.56;76.39;101911.63;4954373;28;20499;-78
2021/03/19 09:39:47;;;;;;;1.92;1.00;;;;;;;8.35;74.45;101902.72;4971692;28;20035;-78
2021/03/19 09:42:22;;;;;;;2.92;1.60;;;;;;;9.53;67.76;101903.31;4962724;28;20048;-77
2021/03/19 09:44:58;;;;;;;2.17;1.35;;;;;;;10.27;63.32;101911.94;4957294;28;20170;-77
2021/03/19 09:47:25;;;;;;;2.10;1.05;;;;;;;10.08;60.50;101913.38;4950119;28;20039;-78
2021/03/19 09:50:10;;;;;;;3.47;0.93;;;;;;;9.27;61.51;101915.94;4957568;28;20548;-78
2021/03/19 09:52:37;;;;;;;1.75;0.73;;;;;;;9.13;63.00;101912.63;4959395;28;20449;-78
2021/03/19 09:55:18;;;;;;;1.88;0.80;;;;;;;8.85;63.94;101919.31;4953007;28;20546;-78
2021/03/19 09:57:44;;;;;;;1.20;0.80;;;;;;;8.49;65.26;101918.72;4956384;28;20063;-77
2021/03/19 10:00:27;;;;;;;2.28;0.90;;;;;;;7.97;66.48;101921.09;4950676;28;20472;-78
2021/03/19 10:02:52;;;;;;;3.20;0.93;;;;;;;7.97;67.72;101933.72;4962596;28;20106;-78
2021/03/19 10:05:25;;;;;;;1.98;0.80;;;;;;;8.04;68.13;101923.31;4985045;28;20062;-78
2021/03/19 10:07:53;;;;;;;1.00;0.90;;;;;;;8.18;68.18;101932.09;4975182;28;20026;-78
2021/03/19 10:10:30;;;;;;;1.25;0.80;;;;;;;8.57;66.56;101928.72;4953115;28;20533;-77
2021/03/19 10:13:16;;;;;;;0.98;0.70;;;;;;;8.54;66.51;101937.38;4952874;28;20042;-78
2021/03/19 10:15:47;;;;;;;2.17;0.90;;;;;;;8.62;65.29;101937.41;4951714;28;20591;-78
2021/03/19 10:18:48;;;;;;;1.80;1.33;;;;;;;8.47;63.71;101939.72;4943226;28;20154;-77
2021/03/19 10:21:20;;;;;;;1.02;0.80;;;;;;;8.49;63.88;101935.63;4907315;29;20052;-77
2021/03/19 10:23:59;;;;;;;1.02;0.65;;;;;;;8.39;64.10;101941.25;4941430;28;20511;-77
2021/03/19 10:26:34;;;;;;;3.33;1.00;;;;;;;8.28;65.12;101942.63;4949814;28;20019;-77
2021/03/19 10:29:34;;;;;;;2.13;0.80;;;;;;;8.37;65.35;101943.44;4942329;28;20055;-77
2021/03/19 10:32:12;;;;;;;1.42;0.70;;;;;;;8.34;64.13;101936.03;4947227;28;20127;-77
2021/03/19 10:34:38;;;;;;;3.28;1.20;;;;;;;8.10;64.95;101932.84;4946565;28;20023;-78
2021/03/19 10:37:04;;;;;;;3.20;1.00;;;;;;;8.33;65.45;101941.69;4945580;28;20031;-78
2021/03/19 10:39:38;;;;;;;0.75;0.75;;;;;;;8.48;64.19;101931.34;4945872;28;20103;-77
2021/03/19 10:42:12;;;;;;;3.50;1.00;;;;;;;9.09;64.99;101941.22;4958839;28;20040;-78
2021/03/19 10:45:02;;;;;;;3.28;1.10;;;;;;;9.40;62.02;101938.41;4945087;28;20043;-78
2021/03/19 10:47:43;;;;;;;4.90;0.88;;;;;;;9.60;61.57;101949.34;4957431;28;20052;-78
2021/03/19 10:50:15;;;;;;;1.60;0.80;;;;;;;9.50;62.08;101943.50;4943757;28;20090;-78
2021/03/19 10:52:48;;;;;;;1.00;0.60;;;;;;;9.23;61.33;101946.47;4947393;28;20378;-77
2021/03/19 10:55:37;;;;;;;0.98;0.70;;;;;;;9.22;62.72;101936.81;4964251;28;20034;-78
2021/03/19 10:58:25;;;;;;;0.63;0.63;;;;;;;8.80;61.65;101935.59;4958965;28;20074;-77
2021/03/19 11:00:52;;;;;;;1.98;0.70;;;;;;;8.82;60.24;101939.56;4943442;28;20063;-77
2021/03/19 11:03:32;;;;;;;3.30;0.80;;;;;;;9.00;59.68;101951.91;4945304;28;20110;-77
2021/03/19 11:06:00;;;;;;;2.05;0.90;;;;;;;8.87;60.65;101955.53;4946707;28;20400;-77
2021/03/19 11:08:26;;;;;;;3.08;0.77;;;;;;;8.97;61.98;101957.94;4961323;28;20122;-77
2021/03/19 11:10:53;;;;;;;1.50;0.75;;;;;;;9.01;60.35;101958.09;4949113;28;20174;-77
2021/03/19 11:13:30;;;;;;;1.38;0.80;;;;;;;9.03;60.06;101953.19;4950342;28;20134;-78
2021/03/19 11:16:06;;;;;;;1.13;0.95;;;;;;;9.15;59.30;101958.78;4942447;28;20586;-77
2021/03/19 11:18:38;;;;;;;1.30;1.00;;;;;;;9.31;58.83;101964.50;4950439;28;20046;-78
2021/03/19 11:21:07;;;;;;;0.98;0.90;;;;;;;9.16;59.43;101960.34;4950453;28;20063;-78
2021/03/19 11:23:36;;;;;;;1.42;0.90;;;;;;;9.20;58.37;101960.50;4952764;28;20037;-78
2021/03/19 11:26:24;;;;;;;3.40;1.20;;;;;;;8.99;58.27;101961.09;4962610;28;20512;-78
2021/03/19 11:29:04;;;;;;;4.18;1.30;;;;;;;8.84;59.21;101960.72;4940476;28;20044;-77
2021/03/19 11:31:29;;;;;;;1.58;1.02;;;;;;;8.84;59.50;101966.09;4950497;28;20114;-78
2021/03/19 11:34:03;;;;;;;3.70;1.10;;;;;;;8.62;58.06;101969.63;4954296;28;20058;-77
2021/03/19 11:37:00;;;;;;;1.95;1.00;;;;;;;8.56;59.70;101964.69;4948792;28;20031;-78
2021/03/19 11:39:56;;;;;;;6.68;1.10;;;;;;;8.95;58.68;101973.56;4953080;28;20091;-78
2021/03/19 11:42:24;;;;;;;0.90;0.73;;;;;;;8.69;57.47;101979.94;4939406;28;20067;-78
2021/03/19 11:44:53;;;;;;;1.35;0.73;;;;;;;8.59;58.62;101974.84;4954944;28;20081;-78
2021/03/19 11:47:33;;;;;;;1.60;0.95;;;;;;;8.86;58.21;101980.00;4960873;28;20051;-78
2021/03/19 11:50:20;;;;;;;1.93;1.03;;;;;;;8.33;58.13;101984.63;4938059;28;20039;-78
2021/03/19 11:52:47;;;;;;;1.10;0.90;;;;;;;8.42;56.95;101990.84;4942234;28;20595;-77
2021/03/19 11:55:19;;;;;;;1.85;0.90;;;;;;;8.05;57.99;101982.03;4944781;28;20051;-78
2021/03/19 11:57:45;;;;;;;3.08;1.00;;;;;;;8.27;57.89;101986.63;4949580;28;20039;-77
2021/03/19 12:00:15;;;;;;;3.83;0.80;;;;;;;8.50;57.81;101996.25;4935270;28;20103;-77
2021/03/19 12:02:42;;;;;;;5.47;1.00;;;;;;;8.59;57.26;101994.44;4934249;28;20071;-77